sensor_id;sensor_type;location;lat;lon;timestamp;P1;durP1;ratioP1;P2;durP2;ratioP2
76094;SDS011;64821;13.710;100.604;2023-12-07T00:01:03;7.20;;;3.40;;
76094;SDS011;64821;13.710;100.604;2023-12-07T00:02:07;6.88;;;3.50;;
76094;SDS011;64821;13.710;100.604;2023-12-07T00:03:11;8.68;;;3.33;;
76094;SDS011;64821;13.710;100.604;2023-12-07T00:04:15;7.35;;;3.67;;
76094;SDS011;64821;13.710;100.604;2023-12-07T00:05:19;7.07;;;3.70;;
76094;SDS011;64821;13.710;100.604;2023-12-07T00:06:23;8.07;;;3.50;;
76094;SDS011;64821;13.710;100.604;2023-12-07T00:07:27;7.82;;;3.42;;
76094;SDS011;64821;13.710;100.604;2023-12-07T00:08:31;7.97;;;3.80;;
76094;SDS011;64821;13.710;100.604;2023-12-07T00:09:35;7.07;;;3.35;;
76094;SDS011;64821;13.710;100.604;2023-12-07T00:10:39;7.53;;;3.40;;
76094;SDS011;64821;13.710;100.604;2023-12-07T00:11:43;8.47;;;3.60;;
76094;SDS011;64821;13.710;100.604;2023-12-07T00:12:49;8.15;;;3.13;;
76094;SDS011;64821;13.710;100.604;2023-12-07T00:13:53;6.30;;;3.00;;
76094;SDS011;64821;13.710;100.604;2023-12-07T00:14:56;6.38;;;3.10;;
76094;SDS011;64821;13.710;100.604;2023-12-07T00:16:01;7.22;;;3.30;;
76094;SDS011;64821;13.710;100.604;2023-12-07T00:17:05;7.40;;;3.10;;
76094;SDS011;64821;13.710;100.604;2023-12-07T00:18:09;8.18;;;3.47;;
76094;SDS011;64821;13.710;100.604;2023-12-07T00:19:13;7.03;;;2.97;;
76094;SDS011;64821;13.710;100.604;2023-12-07T00:20:17;7.00;;;3.10;;
76094;SDS011;64821;13.710;100.604;2023-12-07T00:21:21;7.78;;;3.30;;
76094;SDS011;64821;13.710;100.604;2023-12-07T00:22:25;6.60;;;3.10;;
76094;SDS011;64821;13.710;100.604;2023-12-07T00:23:29;7.53;;;3.40;;
76094;SDS011;64821;13.710;100.604;2023-12-07T00:24:33;8.77;;;3.40;;
76094;SDS011;64821;13.710;100.604;2023-12-07T00:25:37;7.18;;;3.15;;
76094;SDS011;64821;13.710;100.604;2023-12-07T00:26:42;8.25;;;3.40;;
76094;SDS011;64821;13.710;100.604;2023-12-07T00:27:46;6.70;;;3.00;;
76094;SDS011;64821;13.710;100.604;2023-12-07T00:28:52;6.75;;;3.40;;
76094;SDS011;64821;13.710;100.604;2023-12-07T00:29:56;7.65;;;3.00;;
76094;SDS011;64821;13.710;100.604;2023-12-07T00:31:00;8.00;;;3.03;;
76094;SDS011;64821;13.710;100.604;2023-12-07T00:32:04;6.47;;;3.08;;
76094;SDS011;64821;13.710;100.604;2023-12-07T00:33:08;8.93;;;3.40;;
76094;SDS011;64821;13.710;100.604;2023-12-07T00:34:12;7.32;;;3.58;;
76094;SDS011;64821;13.710;100.604;2023-12-07T00:35:16;7.72;;;3.42;;
76094;SDS011;64821;13.710;100.604;2023-12-07T00:36:20;6.80;;;2.85;;
76094;SDS011;64821;13.710;100.604;2023-12-07T00:37:24;7.78;;;3.10;;
76094;SDS011;64821;13.710;100.604;2023-12-07T00:38:28;7.43;;;3.00;;
76094;SDS011;64821;13.710;100.604;2023-12-07T00:39:32;7.68;;;3.30;;
76094;SDS011;64821;13.710;100.604;2023-12-07T00:40:36;8.20;;;3.40;;
76094;SDS011;64821;13.710;100.604;2023-12-07T00:41:40;6.80;;;2.80;;
76094;SDS011;64821;13.710;100.604;2023-12-07T00:42:44;8.82;;;3.20;;
76094;SDS011;64821;13.710;100.604;2023-12-07T00:43:48;7.20;;;3.17;;
76094;SDS011;64821;13.710;100.604;2023-12-07T00:44:53;8.60;;;3.00;;
76094;SDS011;64821;13.710;100.604;2023-12-07T00:45:57;6.80;;;3.00;;
76094;SDS011;64821;13.710;100.604;2023-12-07T00:47:01;6.78;;;3.00;;
76094;SDS011;64821;13.710;100.604;2023-12-07T00:48:05;7.55;;;3.13;;
76094;SDS011;64821;13.710;100.604;2023-12-07T00:49:10;7.57;;;2.90;;
76094;SDS011;64821;13.710;100.604;2023-12-07T00:50:14;6.32;;;2.90;;
76094;SDS011;64821;13.710;100.604;2023-12-07T00:51:18;7.15;;;3.10;;
76094;SDS011;64821;13.710;100.604;2023-12-07T00:52:22;7.78;;;3.33;;
76094;SDS011;64821;13.710;100.604;2023-12-07T00:53:26;6.47;;;3.10;;
76094;SDS011;64821;13.710;100.604;2023-12-07T00:54:30;6.10;;;2.70;;
76094;SDS011;64821;13.710;100.604;2023-12-07T00:55:34;6.75;;;2.80;;
76094;SDS011;64821;13.710;100.604;2023-12-07T00:56:38;7.53;;;3.50;;
76094;SDS011;64821;13.710;100.604;2023-12-07T00:57:42;7.97;;;3.20;;
76094;SDS011;64821;13.710;100.604;2023-12-07T00:58:46;7.25;;;3.00;;
76094;SDS011;64821;13.710;100.604;2023-12-07T00:59:51;6.87;;;3.30;;
76094;SDS011;64821;13.710;100.604;2023-12-07T01:00:56;7.45;;;3.10;;
76094;SDS011;64821;13.710;100.604;2023-12-07T01:02:00;7.45;;;3.28;;
76094;SDS011;64821;13.710;100.604;2023-12-07T01:03:04;6.40;;;2.90;;
76094;SDS011;64821;13.710;100.604;2023-12-07T01:04:08;6.40;;;3.10;;
76094;SDS011;64821;13.710;100.604;2023-12-07T01:05:13;7.20;;;3.10;;
76094;SDS011;64821;13.710;100.604;2023-12-07T01:06:17;9.02;;;3.40;;
76094;SDS011;64821;13.710;100.604;2023-12-07T01:07:21;8.25;;;3.28;;
76094;SDS011;64821;13.710;100.604;2023-12-07T01:08:25;7.97;;;3.53;;
76094;SDS011;64821;13.710;100.604;2023-12-07T01:09:29;7.95;;;3.00;;
76094;SDS011;64821;13.710;100.604;2023-12-07T01:10:33;7.13;;;3.20;;
76094;SDS011;64821;13.710;100.604;2023-12-07T01:11:37;6.57;;;3.00;;
76094;SDS011;64821;13.710;100.604;2023-12-07T01:12:41;7.47;;;3.08;;
76094;SDS011;64821;13.710;100.604;2023-12-07T01:13:44;7.43;;;3.40;;
76094;SDS011;64821;13.710;100.604;2023-12-07T01:14:48;7.05;;;2.80;;
76094;SDS011;64821;13.710;100.604;2023-12-07T01:15:54;6.57;;;2.70;;
76094;SDS011;64821;13.710;100.604;2023-12-07T01:16:58;6.65;;;3.00;;
76094;SDS011;64821;13.710;100.604;2023-12-07T01:18:02;5.95;;;2.80;;
76094;SDS011;64821;13.710;100.604;2023-12-07T01:19:07;7.07;;;3.00;;
76094;SDS011;64821;13.710;100.604;2023-12-07T01:20:11;7.18;;;2.95;;
76094;SDS011;64821;13.710;100.604;2023-12-07T01:21:15;5.70;;;2.50;;
76094;SDS011;64821;13.710;100.604;2023-12-07T01:22:19;7.05;;;2.70;;
76094;SDS011;64821;13.710;100.604;2023-12-07T01:23:23;8.00;;;3.10;;
76094;SDS011;64821;13.710;100.604;2023-12-07T01:24:27;7.25;;;3.38;;
76094;SDS011;64821;13.710;100.604;2023-12-07T01:25:31;8.40;;;3.28;;
76094;SDS011;64821;13.710;100.604;2023-12-07T01:26:35;6.33;;;2.73;;
76094;SDS011;64821;13.710;100.604;2023-12-07T01:27:39;7.35;;;2.75;;
76094;SDS011;64821;13.710;100.604;2023-12-07T01:28:43;6.57;;;2.78;;
76094;SDS011;64821;13.710;100.604;2023-12-07T01:29:47;6.00;;;2.70;;
76094;SDS011;64821;13.710;100.604;2023-12-07T01:30:51;6.35;;;2.60;;
76094;SDS011;64821;13.710;100.604;2023-12-07T01:31:57;7.70;;;2.90;;
76094;SDS011;64821;13.710;100.604;2023-12-07T01:33:01;5.88;;;2.45;;
76094;SDS011;64821;13.710;100.604;2023-12-07T01:34:05;6.28;;;2.40;;
76094;SDS011;64821;13.710;100.604;2023-12-07T01:35:09;6.28;;;2.60;;
76094;SDS011;64821;13.710;100.604;2023-12-07T01:36:13;6.82;;;2.47;;
76094;SDS011;64821;13.710;100.604;2023-12-07T01:37:17;7.17;;;2.70;;
76094;SDS011;64821;13.710;100.604;2023-12-07T01:38:21;6.15;;;2.50;;
76094;SDS011;64821;13.710;100.604;2023-12-07T01:39:25;6.30;;;2.60;;
76094;SDS011;64821;13.710;100.604;2023-12-07T01:40:29;6.45;;;2.50;;
76094;SDS011;64821;13.710;100.604;2023-12-07T01:41:32;5.65;;;2.40;;
76094;SDS011;64821;13.710;100.604;2023-12-07T01:42:36;5.50;;;2.40;;
76094;SDS011;64821;13.710;100.604;2023-12-07T01:43:44;7.57;;;2.55;;
76094;SDS011;64821;13.710;100.604;2023-12-07T01:44:48;7.20;;;2.60;;
76094;SDS011;64821;13.710;100.604;2023-12-07T01:45:54;6.38;;;2.53;;
76094;SDS011;64821;13.710;100.604;2023-12-07T01:46:59;6.95;;;2.38;;
76094;SDS011;64821;13.710;100.604;2023-12-07T01:48:04;6.30;;;2.10;;
76094;SDS011;64821;13.710;100.604;2023-12-07T01:49:09;6.85;;;2.55;;
76094;SDS011;64821;13.710;100.604;2023-12-07T01:50:13;6.85;;;2.00;;
76094;SDS011;64821;13.710;100.604;2023-12-07T01:51:18;5.85;;;2.25;;
76094;SDS011;64821;13.710;100.604;2023-12-07T01:52:22;5.53;;;2.20;;
76094;SDS011;64821;13.710;100.604;2023-12-07T01:53:29;6.70;;;2.23;;
76094;SDS011;64821;13.710;100.604;2023-12-07T01:54:33;6.05;;;2.20;;
76094;SDS011;64821;13.710;100.604;2023-12-07T01:55:38;6.07;;;2.15;;
76094;SDS011;64821;13.710;100.604;2023-12-07T01:56:42;6.05;;;2.30;;
76094;SDS011;64821;13.710;100.604;2023-12-07T01:57:46;5.45;;;2.10;;
76094;SDS011;64821;13.710;100.604;2023-12-07T01:58:50;5.50;;;2.10;;
76094;SDS011;64821;13.710;100.604;2023-12-07T01:59:54;6.90;;;2.10;;
76094;SDS011;64821;13.710;100.604;2023-12-07T02:01:00;6.22;;;2.10;;
76094;SDS011;64821;13.710;100.604;2023-12-07T02:02:04;5.50;;;2.05;;
76094;SDS011;64821;13.710;100.604;2023-12-07T02:03:08;7.18;;;2.40;;
76094;SDS011;64821;13.710;100.604;2023-12-07T02:04:12;7.37;;;2.03;;
76094;SDS011;64821;13.710;100.604;2023-12-07T02:05:16;6.13;;;2.08;;
76094;SDS011;64821;13.710;100.604;2023-12-07T02:06:20;6.53;;;2.13;;
76094;SDS011;64821;13.710;100.604;2023-12-07T02:07:24;6.43;;;2.00;;
76094;SDS011;64821;13.710;100.604;2023-12-07T02:08:30;5.20;;;1.83;;
76094;SDS011;64821;13.710;100.604;2023-12-07T02:09:34;6.07;;;1.70;;
76094;SDS011;64821;13.710;100.604;2023-12-07T02:10:38;5.50;;;1.90;;
76094;SDS011;64821;13.710;100.604;2023-12-07T02:11:42;6.88;;;2.10;;
76094;SDS011;64821;13.710;100.604;2023-12-07T02:12:46;5.55;;;1.90;;
76094;SDS011;64821;13.710;100.604;2023-12-07T02:13:50;5.75;;;2.22;;
76094;SDS011;64821;13.710;100.604;2023-12-07T02:14:54;5.50;;;2.00;;
76094;SDS011;64821;13.710;100.604;2023-12-07T02:16:00;7.05;;;1.80;;
76094;SDS011;64821;13.710;100.604;2023-12-07T02:17:13;5.47;;;1.90;;
76094;SDS011;64821;13.710;100.604;2023-12-07T02:18:22;5.30;;;1.80;;
76094;SDS011;64821;13.710;100.604;2023-12-07T02:20:57;9.33;;;2.20;;
76094;SDS011;64821;13.710;100.604;2023-12-07T02:22:07;6.03;;;2.10;;
76094;SDS011;64821;13.710;100.604;2023-12-07T02:23:17;6.97;;;2.10;;
76094;SDS011;64821;13.710;100.604;2023-12-07T02:24:42;5.40;;;1.90;;
76094;SDS011;64821;13.710;100.604;2023-12-07T02:27:40;5.43;;;1.80;;
76094;SDS011;64821;13.710;100.604;2023-12-07T02:28:45;6.30;;;1.80;;
76094;SDS011;64821;13.710;100.604;2023-12-07T02:29:49;5.40;;;1.85;;
76094;SDS011;64821;13.710;100.604;2023-12-07T02:30:53;6.97;;;2.30;;
76094;SDS011;64821;13.710;100.604;2023-12-07T02:31:57;6.30;;;2.30;;
76094;SDS011;64821;13.710;100.604;2023-12-07T02:33:01;6.07;;;1.90;;
76094;SDS011;64821;13.710;100.604;2023-12-07T02:34:05;7.43;;;1.80;;
76094;SDS011;64821;13.710;100.604;2023-12-07T20:01:51;8.00;;;3.50;;
76094;SDS011;64821;13.710;100.604;2023-12-07T20:02:55;9.05;;;3.83;;
76094;SDS011;64821;13.710;100.604;2023-12-07T20:04:00;7.80;;;4.03;;
76094;SDS011;64821;13.710;100.604;2023-12-07T20:05:04;7.90;;;3.78;;
76094;SDS011;64821;13.710;100.604;2023-12-07T20:06:09;7.68;;;3.72;;
76094;SDS011;64821;13.710;100.604;2023-12-07T20:07:13;7.97;;;3.53;;
76094;SDS011;64821;13.710;100.604;2023-12-07T20:08:17;9.98;;;4.38;;
76094;SDS011;64821;13.710;100.604;2023-12-07T20:09:21;9.85;;;4.50;;
76094;SDS011;64821;13.710;100.604;2023-12-07T20:10:25;9.80;;;4.40;;
76094;SDS011;64821;13.710;100.604;2023-12-07T20:11:29;7.15;;;3.67;;
76094;SDS011;64821;13.710;100.604;2023-12-07T20:12:33;7.63;;;3.87;;
76094;SDS011;64821;13.710;100.604;2023-12-07T20:13:37;9.05;;;4.15;;
76094;SDS011;64821;13.710;100.604;2023-12-07T20:14:41;9.15;;;4.43;;
76094;SDS011;64821;13.710;100.604;2023-12-07T20:15:45;9.98;;;4.80;;
76094;SDS011;64821;13.710;100.604;2023-12-07T20:16:51;9.02;;;4.03;;
76094;SDS011;64821;13.710;100.604;2023-12-07T20:17:55;8.30;;;4.17;;
76094;SDS011;64821;13.710;100.604;2023-12-07T20:18:59;7.68;;;4.00;;
76094;SDS011;64821;13.710;100.604;2023-12-07T20:20:04;8.25;;;4.18;;
76094;SDS011;64821;13.710;100.604;2023-12-07T20:21:09;9.35;;;4.30;;
76094;SDS011;64821;13.710;100.604;2023-12-07T20:22:14;8.95;;;4.10;;
76094;SDS011;64821;13.710;100.604;2023-12-07T20:23:18;9.60;;;4.63;;
76094;SDS011;64821;13.710;100.604;2023-12-07T20:24:22;8.18;;;3.80;;
76094;SDS011;64821;13.710;100.604;2023-12-07T20:25:26;7.95;;;3.92;;
76094;SDS011;64821;13.710;100.604;2023-12-07T20:26:30;7.63;;;3.95;;
76094;SDS011;64821;13.710;100.604;2023-12-07T20:27:34;7.55;;;3.72;;
76094;SDS011;64821;13.710;100.604;2023-12-07T20:28:38;7.80;;;3.93;;
76094;SDS011;64821;13.710;100.604;2023-12-07T20:29:42;9.38;;;4.68;;
76094;SDS011;64821;13.710;100.604;2023-12-07T20:30:46;7.80;;;3.80;;
76094;SDS011;64821;13.710;100.604;2023-12-07T20:31:52;9.15;;;4.60;;
76094;SDS011;64821;13.710;100.604;2023-12-07T20:32:55;9.27;;;4.70;;
76094;SDS011;64821;13.710;100.604;2023-12-07T20:34:00;8.50;;;4.10;;
76094;SDS011;64821;13.710;100.604;2023-12-07T20:35:05;9.45;;;4.93;;
76094;SDS011;64821;13.710;100.604;2023-12-07T20:36:10;7.95;;;3.95;;
76094;SDS011;64821;13.710;100.604;2023-12-07T20:37:14;8.85;;;4.80;;
76094;SDS011;64821;13.710;100.604;2023-12-07T20:38:18;8.40;;;4.10;;
76094;SDS011;64821;13.710;100.604;2023-12-07T20:39:22;10.17;;;4.07;;
76094;SDS011;64821;13.710;100.604;2023-12-07T20:40:26;7.90;;;3.95;;
76094;SDS011;64821;13.710;100.604;2023-12-07T20:41:30;8.57;;;4.30;;
76094;SDS011;64821;13.710;100.604;2023-12-07T20:42:34;10.70;;;4.32;;
76094;SDS011;64821;13.710;100.604;2023-12-07T20:43:38;8.68;;;4.53;;
76094;SDS011;64821;13.710;100.604;2023-12-07T20:44:42;8.03;;;4.20;;
76094;SDS011;64821;13.710;100.604;2023-12-07T20:45:46;8.63;;;4.18;;
76094;SDS011;64821;13.710;100.604;2023-12-07T20:46:51;9.32;;;4.78;;
76094;SDS011;64821;13.710;100.604;2023-12-07T20:47:55;8.57;;;4.43;;
76094;SDS011;64821;13.710;100.604;2023-12-07T20:48:59;7.82;;;4.10;;
76094;SDS011;64821;13.710;100.604;2023-12-07T20:50:04;8.80;;;4.00;;
76094;SDS011;64821;13.710;100.604;2023-12-07T20:51:08;9.75;;;4.65;;
76094;SDS011;64821;13.710;100.604;2023-12-07T20:52:12;9.77;;;4.25;;
76094;SDS011;64821;13.710;100.604;2023-12-07T20:53:19;8.13;;;4.35;;
76094;SDS011;64821;13.710;100.604;2023-12-07T20:54:23;8.10;;;4.13;;
76094;SDS011;64821;13.710;100.604;2023-12-07T20:55:27;9.30;;;4.23;;
76094;SDS011;64821;13.710;100.604;2023-12-07T20:56:31;8.68;;;4.10;;
76094;SDS011;64821;13.710;100.604;2023-12-07T20:57:44;8.65;;;4.38;;
76094;SDS011;64821;13.710;100.604;2023-12-07T20:58:49;8.70;;;4.38;;
76094;SDS011;64821;13.710;100.604;2023-12-07T20:59:53;7.65;;;4.07;;
76094;SDS011;64821;13.710;100.604;2023-12-07T21:00:57;8.37;;;3.73;;
76094;SDS011;64821;13.710;100.604;2023-12-07T21:02:03;8.25;;;4.00;;
76094;SDS011;64821;13.710;100.604;2023-12-07T21:03:07;9.15;;;3.92;;
76094;SDS011;64821;13.710;100.604;2023-12-07T21:04:11;9.45;;;4.75;;
76094;SDS011;64821;13.710;100.604;2023-12-07T21:05:15;8.27;;;4.15;;
76094;SDS011;64821;13.710;100.604;2023-12-07T21:06:19;9.30;;;4.40;;
76094;SDS011;64821;13.710;100.604;2023-12-07T21:07:28;7.72;;;3.97;;
76094;SDS011;64821;13.710;100.604;2023-12-07T21:08:32;8.68;;;4.60;;
76094;SDS011;64821;13.710;100.604;2023-12-07T21:09:36;7.35;;;3.85;;
76094;SDS011;64821;13.710;100.604;2023-12-07T21:10:40;7.60;;;3.92;;
76094;SDS011;64821;13.710;100.604;2023-12-07T21:11:44;8.23;;;4.23;;
76094;SDS011;64821;13.710;100.604;2023-12-07T21:12:48;8.60;;;3.97;;
76094;SDS011;64821;13.710;100.604;2023-12-07T21:13:52;7.63;;;4.18;;
76094;SDS011;64821;13.710;100.604;2023-12-07T21:14:56;7.60;;;4.00;;
76094;SDS011;64821;13.710;100.604;2023-12-07T21:16:00;9.85;;;4.13;;
76094;SDS011;64821;13.710;100.604;2023-12-07T21:17:05;8.87;;;4.23;;
76094;SDS011;64821;13.710;100.604;2023-12-07T21:18:11;8.75;;;4.00;;
76094;SDS011;64821;13.710;100.604;2023-12-07T21:19:16;8.88;;;4.00;;
76094;SDS011;64821;13.710;100.604;2023-12-07T21:20:21;7.57;;;3.90;;
76094;SDS011;64821;13.710;100.604;2023-12-07T21:21:25;7.43;;;4.15;;
76094;SDS011;64821;13.710;100.604;2023-12-07T21:22:29;7.03;;;3.50;;
76094;SDS011;64821;13.710;100.604;2023-12-07T21:23:34;7.60;;;3.70;;
76094;SDS011;64821;13.710;100.604;2023-12-07T21:24:38;7.97;;;4.00;;
76094;SDS011;64821;13.710;100.604;2023-12-07T21:25:42;9.00;;;3.90;;
76094;SDS011;64821;13.710;100.604;2023-12-07T21:26:46;8.48;;;4.50;;
76094;SDS011;64821;13.710;100.604;2023-12-07T21:27:50;8.43;;;3.90;;
76094;SDS011;64821;13.710;100.604;2023-12-07T21:28:54;8.50;;;4.38;;
76094;SDS011;64821;13.710;100.604;2023-12-07T21:29:58;8.95;;;3.83;;
76094;SDS011;64821;13.710;100.604;2023-12-07T21:31:02;8.25;;;3.85;;
76094;SDS011;64821;13.710;100.604;2023-12-07T21:32:08;7.53;;;4.05;;
76094;SDS011;64821;13.710;100.604;2023-12-07T21:33:12;9.17;;;4.47;;
76094;SDS011;64821;13.710;100.604;2023-12-07T21:34:16;8.07;;;4.00;;
76094;SDS011;64821;13.710;100.604;2023-12-07T21:35:20;8.77;;;3.88;;
76094;SDS011;64821;13.710;100.604;2023-12-07T21:36:24;7.85;;;4.20;;
76094;SDS011;64821;13.710;100.604;2023-12-07T21:37:28;7.43;;;3.85;;
76094;SDS011;64821;13.710;100.604;2023-12-07T21:38:34;8.17;;;4.13;;
76094;SDS011;64821;13.710;100.604;2023-12-07T21:39:38;7.28;;;3.65;;
76094;SDS011;64821;13.710;100.604;2023-12-07T21:40:45;9.02;;;4.20;;
76094;SDS011;64821;13.710;100.604;2023-12-07T21:41:49;8.48;;;4.10;;
76094;SDS011;64821;13.710;100.604;2023-12-07T21:42:53;8.48;;;4.30;;
76094;SDS011;64821;13.710;100.604;2023-12-07T21:43:56;8.63;;;3.80;;
76094;SDS011;64821;13.710;100.604;2023-12-07T21:45:00;8.45;;;4.10;;
76094;SDS011;64821;13.710;100.604;2023-12-07T21:46:04;7.65;;;4.18;;
76094;SDS011;64821;13.710;100.604;2023-12-07T21:47:10;7.78;;;4.07;;
76094;SDS011;64821;13.710;100.604;2023-12-07T21:48:14;8.32;;;4.25;;
76094;SDS011;64821;13.710;100.604;2023-12-07T21:49:18;7.87;;;4.10;;
76094;SDS011;64821;13.710;100.604;2023-12-07T21:50:22;8.07;;;4.28;;
76094;SDS011;64821;13.710;100.604;2023-12-07T21:51:26;8.05;;;4.00;;
76094;SDS011;64821;13.710;100.604;2023-12-07T21:52:30;7.40;;;3.80;;
76094;SDS011;64821;13.710;100.604;2023-12-07T21:53:34;8.10;;;4.28;;
76094;SDS011;64821;13.710;100.604;2023-12-07T21:54:38;8.23;;;4.27;;
76094;SDS011;64821;13.710;100.604;2023-12-07T21:55:42;8.75;;;4.80;;
76094;SDS011;64821;13.710;100.604;2023-12-07T21:56:46;7.78;;;3.92;;
76094;SDS011;64821;13.710;100.604;2023-12-07T21:57:50;8.10;;;3.92;;
76094;SDS011;64821;13.710;100.604;2023-12-07T21:58:54;7.30;;;3.88;;
76094;SDS011;64821;13.710;100.604;2023-12-07T21:59:58;8.97;;;4.77;;
76094;SDS011;64821;13.710;100.604;2023-12-07T22:01:02;7.32;;;3.90;;
76094;SDS011;64821;13.710;100.604;2023-12-07T22:02:06;8.45;;;4.13;;
76094;SDS011;64821;13.710;100.604;2023-12-07T22:03:11;9.40;;;4.70;;
76094;SDS011;64821;13.710;100.604;2023-12-07T22:04:15;8.65;;;4.80;;
76094;SDS011;64821;13.710;100.604;2023-12-07T22:05:19;8.60;;;4.00;;
76094;SDS011;64821;13.710;100.604;2023-12-07T22:06:24;8.48;;;3.97;;
76094;SDS011;64821;13.710;100.604;2023-12-07T22:07:28;8.60;;;4.30;;
76094;SDS011;64821;13.710;100.604;2023-12-07T22:08:32;10.63;;;4.47;;
76094;SDS011;64821;13.710;100.604;2023-12-07T22:09:36;8.32;;;4.00;;
76094;SDS011;64821;13.710;100.604;2023-12-07T22:10:40;7.87;;;4.10;;
76094;SDS011;64821;13.710;100.604;2023-12-07T22:11:44;8.30;;;4.20;;
76094;SDS011;64821;13.710;100.604;2023-12-07T22:12:48;7.38;;;4.00;;
76094;SDS011;64821;13.710;100.604;2023-12-07T22:13:52;8.43;;;4.13;;
76094;SDS011;64821;13.710;100.604;2023-12-07T22:14:56;9.25;;;4.18;;
76094;SDS011;64821;13.710;100.604;2023-12-07T22:16:01;7.90;;;3.80;;
76094;SDS011;64821;13.710;100.604;2023-12-07T22:17:05;8.98;;;4.45;;
76094;SDS011;64821;13.710;100.604;2023-12-07T22:18:11;7.65;;;4.25;;
76094;SDS011;64821;13.710;100.604;2023-12-07T22:19:15;8.00;;;4.10;;
76094;SDS011;64821;13.710;100.604;2023-12-07T22:20:20;8.48;;;4.20;;
76094;SDS011;64821;13.710;100.604;2023-12-07T22:21:26;8.43;;;4.00;;
76094;SDS011;64821;13.710;100.604;2023-12-07T22:22:33;9.98;;;4.85;;
76094;SDS011;64821;13.710;100.604;2023-12-07T22:23:38;9.55;;;4.53;;
76094;SDS011;64821;13.710;100.604;2023-12-07T22:24:42;7.80;;;4.25;;
76094;SDS011;64821;13.710;100.604;2023-12-07T22:25:46;7.72;;;3.85;;
76094;SDS011;64821;13.710;100.604;2023-12-07T22:26:50;8.20;;;3.80;;
76094;SDS011;64821;13.710;100.604;2023-12-07T22:27:54;7.53;;;3.95;;
76094;SDS011;64821;13.710;100.604;2023-12-07T22:28:58;6.40;;;3.50;;
76094;SDS011;64821;13.710;100.604;2023-12-07T22:30:02;7.80;;;3.60;;
76094;SDS011;64821;13.710;100.604;2023-12-07T22:31:07;8.07;;;4.10;;
76094;SDS011;64821;13.710;100.604;2023-12-07T22:32:11;7.50;;;3.80;;
76094;SDS011;64821;13.710;100.604;2023-12-07T22:33:17;6.60;;;3.33;;
76094;SDS011;64821;13.710;100.604;2023-12-07T22:34:21;7.15;;;3.85;;
76094;SDS011;64821;13.710;100.604;2023-12-07T22:35:25;7.03;;;3.65;;
76094;SDS011;64821;13.710;100.604;2023-12-07T22:36:29;9.43;;;3.60;;
76094;SDS011;64821;13.710;100.604;2023-12-07T22:37:33;8.13;;;3.80;;
76094;SDS011;64821;13.710;100.604;2023-12-07T22:38:37;7.75;;;3.58;;
76094;SDS011;64821;13.710;100.604;2023-12-07T22:39:41;8.23;;;4.10;;
76094;SDS011;64821;13.710;100.604;2023-12-07T22:40:45;7.47;;;3.65;;
76094;SDS011;64821;13.710;100.604;2023-12-07T22:41:49;8.25;;;4.03;;
76094;SDS011;64821;13.710;100.604;2023-12-07T22:42:53;7.90;;;3.77;;
76094;SDS011;64821;13.710;100.604;2023-12-07T22:43:57;7.35;;;3.60;;
76094;SDS011;64821;13.710;100.604;2023-12-07T22:45:01;7.80;;;3.85;;
76094;SDS011;64821;13.710;100.604;2023-12-07T22:46:06;7.75;;;3.80;;
76094;SDS011;64821;13.710;100.604;2023-12-07T22:47:10;7.30;;;3.70;;
76094;SDS011;64821;13.710;100.604;2023-12-07T22:48:13;8.03;;;3.83;;
76094;SDS011;64821;13.710;100.604;2023-12-07T22:49:19;8.25;;;3.80;;
76094;SDS011;64821;13.710;100.604;2023-12-07T22:50:24;8.70;;;3.92;;
76094;SDS011;64821;13.710;100.604;2023-12-07T22:51:27;8.25;;;4.10;;
76094;SDS011;64821;13.710;100.604;2023-12-07T22:52:31;8.93;;;3.95;;
76094;SDS011;64821;13.710;100.604;2023-12-07T22:53:35;7.13;;;3.47;;
76094;SDS011;64821;13.710;100.604;2023-12-07T22:54:40;8.57;;;4.10;;
76094;SDS011;64821;13.710;100.604;2023-12-07T22:55:44;8.48;;;3.80;;
76094;SDS011;64821;13.710;100.604;2023-12-07T22:56:48;7.82;;;4.00;;
76094;SDS011;64821;13.710;100.604;2023-12-07T22:57:52;7.13;;;3.67;;
76094;SDS011;64821;13.710;100.604;2023-12-07T22:58:56;7.90;;;4.10;;
76094;SDS011;64821;13.710;100.604;2023-12-07T23:00:00;7.43;;;4.00;;
76094;SDS011;64821;13.710;100.604;2023-12-07T23:01:04;8.57;;;4.35;;
76094;SDS011;64821;13.710;100.604;2023-12-07T23:02:08;8.95;;;4.60;;
76094;SDS011;64821;13.710;100.604;2023-12-07T23:03:12;8.57;;;4.40;;
76094;SDS011;64821;13.710;100.604;2023-12-07T23:04:18;7.63;;;4.00;;
76094;SDS011;64821;13.710;100.604;2023-12-07T23:05:22;7.60;;;3.85;;
76094;SDS011;64821;13.710;100.604;2023-12-07T23:06:26;8.73;;;4.10;;
76094;SDS011;64821;13.710;100.604;2023-12-07T23:07:30;9.38;;;5.00;;
76094;SDS011;64821;13.710;100.604;2023-12-07T23:08:34;8.48;;;4.30;;
76094;SDS011;64821;13.710;100.604;2023-12-07T23:09:38;8.93;;;4.10;;
76094;SDS011;64821;13.710;100.604;2023-12-07T23:10:42;8.15;;;4.13;;
76094;SDS011;64821;13.710;100.604;2023-12-07T23:11:46;9.25;;;5.15;;
76094;SDS011;64821;13.710;100.604;2023-12-07T23:12:51;7.65;;;4.60;;
76094;SDS011;64821;13.710;100.604;2023-12-07T23:13:55;8.70;;;4.97;;
76094;SDS011;64821;13.710;100.604;2023-12-07T23:14:59;7.47;;;4.13;;
76094;SDS011;64821;13.710;100.604;2023-12-07T23:16:03;8.55;;;4.50;;
76094;SDS011;64821;13.710;100.604;2023-12-07T23:17:07;9.63;;;5.07;;
76094;SDS011;64821;13.710;100.604;2023-12-07T23:18:11;9.05;;;4.45;;
76094;SDS011;64821;13.710;100.604;2023-12-07T23:19:16;9.10;;;5.05;;
76094;SDS011;64821;13.710;100.604;2023-12-07T23:20:22;7.90;;;4.50;;
76094;SDS011;64821;13.710;100.604;2023-12-07T23:21:26;8.77;;;4.55;;
76094;SDS011;64821;13.710;100.604;2023-12-07T23:22:30;9.60;;;4.25;;
76094;SDS011;64821;13.710;100.604;2023-12-07T23:23:34;8.82;;;4.57;;
76094;SDS011;64821;13.710;100.604;2023-12-07T23:24:38;9.00;;;4.80;;
76094;SDS011;64821;13.710;100.604;2023-12-07T23:25:42;8.17;;;4.23;;
76094;SDS011;64821;13.710;100.604;2023-12-07T23:26:46;7.90;;;4.43;;
76094;SDS011;64821;13.710;100.604;2023-12-07T23:27:50;8.38;;;4.82;;
76094;SDS011;64821;13.710;100.604;2023-12-07T23:28:54;9.27;;;4.90;;
76094;SDS011;64821;13.710;100.604;2023-12-07T23:29:58;9.05;;;4.97;;
76094;SDS011;64821;13.710;100.604;2023-12-07T23:31:02;8.80;;;4.90;;
76094;SDS011;64821;13.710;100.604;2023-12-07T23:32:06;9.73;;;4.60;;
76094;SDS011;64821;13.710;100.604;2023-12-07T23:33:10;8.90;;;4.78;;
76094;SDS011;64821;13.710;100.604;2023-12-07T23:34:14;8.35;;;4.63;;
76094;SDS011;64821;13.710;100.604;2023-12-07T23:35:20;8.57;;;4.35;;
76094;SDS011;64821;13.710;100.604;2023-12-07T23:36:24;8.30;;;4.23;;
76094;SDS011;64821;13.710;100.604;2023-12-07T23:37:28;7.45;;;4.00;;
76094;SDS011;64821;13.710;100.604;2023-12-07T23:38:33;8.07;;;4.82;;
76094;SDS011;64821;13.710;100.604;2023-12-07T23:39:40;8.38;;;4.40;;
76094;SDS011;64821;13.710;100.604;2023-12-07T23:40:44;8.05;;;4.43;;
76094;SDS011;64821;13.710;100.604;2023-12-07T23:41:48;8.07;;;4.13;;
76094;SDS011;64821;13.710;100.604;2023-12-07T23:42:52;8.27;;;4.15;;
76094;SDS011;64821;13.710;100.604;2023-12-07T23:43:56;7.68;;;4.25;;
76094;SDS011;64821;13.710;100.604;2023-12-07T23:45:00;9.20;;;4.85;;
76094;SDS011;64821;13.710;100.604;2023-12-07T23:46:06;9.57;;;4.53;;
76094;SDS011;64821;13.710;100.604;2023-12-07T23:47:11;9.37;;;4.70;;